sensor_id;sensor_type;location;lat;lon;timestamp;temperature;humidity
73780;SHT30;62093;37.614;15.072;2023-02-03T00:00:10;14.48;61.36
73780;SHT30;62093;37.614;15.072;2023-02-03T00:02:40;14.48;61.53
73780;SHT30;62093;37.614;15.072;2023-02-03T00:05:06;14.46;61.43
73780;SHT30;62093;37.614;15.072;2023-02-03T00:07:32;14.44;61.49
73780;SHT30;62093;37.614;15.072;2023-02-03T00:09:59;14.46;61.46
73780;SHT30;62093;37.614;15.072;2023-02-03T00:12:25;14.48;61.39
73780;SHT30;62093;37.614;15.072;2023-02-03T00:14:50;14.49;61.42
73780;SHT30;62093;37.614;15.072;2023-02-03T00:17:16;14.45;61.47
73780;SHT30;62093;37.614;15.072;2023-02-03T00:19:42;14.48;61.43
73780;SHT30;62093;37.614;15.072;2023-02-03T00:22:08;14.45;61.41
73780;SHT30;62093;37.614;15.072;2023-02-03T00:24:33;14.42;61.52
73780;SHT30;62093;37.614;15.072;2023-02-03T00:26:59;14.42;61.42
73780;SHT30;62093;37.614;15.072;2023-02-03T00:29:26;14.41;61.42
73780;SHT30;62093;37.614;15.072;2023-02-03T00:31:52;14.40;61.52
73780;SHT30;62093;37.614;15.072;2023-02-03T00:34:19;14.42;61.42
73780;SHT30;62093;37.614;15.072;2023-02-03T00:36:45;14.40;61.40
73780;SHT30;62093;37.614;15.072;2023-02-03T00:39:14;14.38;61.40
73780;SHT30;62093;37.614;15.072;2023-02-03T00:41:40;14.38;61.23
73780;SHT30;62093;37.614;15.072;2023-02-03T00:44:07;14.37;61.18
73780;SHT30;62093;37.614;15.072;2023-02-03T00:46:33;14.35;61.33
73780;SHT30;62093;37.614;15.072;2023-02-03T00:49:02;14.35;61.47
73780;SHT30;62093;37.614;15.072;2023-02-03T00:51:28;14.35;61.47
73780;SHT30;62093;37.614;15.072;2023-02-03T00:53:54;14.34;61.33
73780;SHT30;62093;37.614;15.072;2023-02-03T00:56:19;14.34;61.34
73780;SHT30;62093;37.614;15.072;2023-02-03T00:58:45;14.31;61.33
73780;SHT30;62093;37.614;15.072;2023-02-03T01:01:11;14.34;61.45
73780;SHT30;62093;37.614;15.072;2023-02-03T01:03:37;14.34;61.38
73780;SHT30;62093;37.614;15.072;2023-02-03T01:06:18;14.30;61.42
73780;SHT30;62093;37.614;15.072;2023-02-03T01:08:44;14.32;61.41
73780;SHT30;62093;37.614;15.072;2023-02-03T01:11:14;14.32;61.33
73780;SHT30;62093;37.614;15.072;2023-02-03T01:13:39;14.31;61.33
73780;SHT30;62093;37.614;15.072;2023-02-03T01:16:11;14.32;61.46
73780;SHT30;62093;37.614;15.072;2023-02-03T01:18:38;14.30;61.50
73780;SHT30;62093;37.614;15.072;2023-02-03T01:21:10;14.27;61.47
73780;SHT30;62093;37.614;15.072;2023-02-03T01:23:37;14.27;61.43
73780;SHT30;62093;37.614;15.072;2023-02-03T01:26:05;14.27;61.55
73780;SHT30;62093;37.614;15.072;2023-02-03T01:28:33;14.25;61.40
73780;SHT30;62093;37.614;15.072;2023-02-03T01:31:14;14.27;61.14
73780;SHT30;62093;37.614;15.072;2023-02-03T01:33:41;14.24;61.36
73780;SHT30;62093;37.614;15.072;2023-02-03T01:36:10;14.27;61.40
73780;SHT30;62093;37.614;15.072;2023-02-03T01:38:37;14.25;61.27
73780;SHT30;62093;37.614;15.072;2023-02-03T01:41:05;14.25;61.29
73780;SHT30;62093;37.614;15.072;2023-02-03T01:43:41;14.24;61.40
73780;SHT30;62093;37.614;15.072;2023-02-03T01:48:53;14.20;61.29
73780;SHT30;62093;37.614;15.072;2023-02-03T01:51:20;14.21;61.27
73780;SHT30;62093;37.614;15.072;2023-02-03T01:53:48;14.20;61.41
73780;SHT30;62093;37.614;15.072;2023-02-03T01:56:15;14.20;61.23
73780;SHT30;62093;37.614;15.072;2023-02-03T01:58:42;14.21;61.48
73780;SHT30;62093;37.614;15.072;2023-02-03T02:01:11;14.22;61.40
73780;SHT30;62093;37.614;15.072;2023-02-03T02:03:45;14.18;61.47
73780;SHT30;62093;37.614;15.072;2023-02-03T02:06:13;14.17;61.39
73780;SHT30;62093;37.614;15.072;2023-02-03T02:08:43;14.16;61.41
73780;SHT30;62093;37.614;15.072;2023-02-03T02:11:10;14.13;61.46
73780;SHT30;62093;37.614;15.072;2023-02-03T02:13:40;14.11;61.36
73780;SHT30;62093;37.614;15.072;2023-02-03T02:24:31;14.09;61.56
73780;SHT30;62093;37.614;15.072;2023-02-03T02:39:08;14.04;61.38
73780;SHT30;62093;37.614;15.072;2023-02-03T02:41:51;14.03;61.41
73780;SHT30;62093;37.614;15.072;2023-02-03T02:44:32;14.03;61.58
73780;SHT30;62093;37.614;15.072;2023-02-03T02:47:15;14.01;61.36
73780;SHT30;62093;37.614;15.072;2023-02-03T02:49:49;14.03;61.42
73780;SHT30;62093;37.614;15.072;2023-02-03T02:52:17;14.04;61.52
73780;SHT30;62093;37.614;15.072;2023-02-03T02:54:49;14.01;61.49
73780;SHT30;62093;37.614;15.072;2023-02-03T02:57:17;13.99;61.52
73780;SHT30;62093;37.614;15.072;2023-02-03T02:59:45;14.01;61.54
73780;SHT30;62093;37.614;15.072;2023-02-03T03:02:12;14.00;61.50
73780;SHT30;62093;37.614;15.072;2023-02-03T03:04:39;13.99;61.53
73780;SHT30;62093;37.614;15.072;2023-02-03T03:07:22;14.00;61.41
73780;SHT30;62093;37.614;15.072;2023-02-03T03:09:52;13.99;61.28
73780;SHT30;62093;37.614;15.072;2023-02-03T03:12:23;13.99;61.41
73780;SHT30;62093;37.614;15.072;2023-02-03T03:15:00;13.99;61.44
73780;SHT30;62093;37.614;15.072;2023-02-03T03:17:41;13.96;61.30
73780;SHT30;62093;37.614;15.072;2023-02-03T03:20:13;13.94;61.54
73780;SHT30;62093;37.614;15.072;2023-02-03T03:22:46;13.97;61.62
73780;SHT30;62093;37.614;15.072;2023-02-03T03:25:16;13.94;61.38
73780;SHT30;62093;37.614;15.072;2023-02-03T03:27:48;13.94;61.48
73780;SHT30;62093;37.614;15.072;2023-02-03T03:30:19;13.96;61.57
73780;SHT30;62093;37.614;15.072;2023-02-03T03:32:46;13.94;61.50
73780;SHT30;62093;37.614;15.072;2023-02-03T03:35:13;13.96;61.38
73780;SHT30;62093;37.614;15.072;2023-02-03T03:37:55;13.94;61.57
73780;SHT30;62093;37.614;15.072;2023-02-03T03:40:30;13.93;61.50
73780;SHT30;62093;37.614;15.072;2023-02-03T03:43:12;13.93;61.53
73780;SHT30;62093;37.614;15.072;2023-02-03T03:45:53;13.93;61.48
73780;SHT30;62093;37.614;15.072;2023-02-03T03:48:26;13.93;61.45
73780;SHT30;62093;37.614;15.072;2023-02-03T03:51:07;13.93;61.52
73780;SHT30;62093;37.614;15.072;2023-02-03T03:53:36;13.93;61.36
73780;SHT30;62093;37.614;15.072;2023-02-03T03:56:06;13.91;61.45
73780;SHT30;62093;37.614;15.072;2023-02-03T03:58:33;13.91;61.46
73780;SHT30;62093;37.614;15.072;2023-02-03T04:01:02;13.90;61.51
73780;SHT30;62093;37.614;15.072;2023-02-03T04:03:37;13.89;61.48
73780;SHT30;62093;37.614;15.072;2023-02-03T04:06:05;13.91;61.50
73780;SHT30;62093;37.614;15.072;2023-02-03T04:08:30;13.87;61.43
73780;SHT30;62093;37.614;15.072;2023-02-03T04:10:56;13.89;61.36
73780;SHT30;62093;37.614;15.072;2023-02-03T04:13:22;13.89;61.51
73780;SHT30;62093;37.614;15.072;2023-02-03T04:15:48;13.87;61.41
73780;SHT30;62093;37.614;15.072;2023-02-03T04:18:14;13.87;61.57
73780;SHT30;62093;37.614;15.072;2023-02-03T04:20:41;13.86;61.50
73780;SHT30;62093;37.614;15.072;2023-02-03T04:23:08;13.86;61.56
73780;SHT30;62093;37.614;15.072;2023-02-03T04:25:34;13.86;61.52
73780;SHT30;62093;37.614;15.072;2023-02-03T04:27:59;13.87;61.26
73780;SHT30;62093;37.614;15.072;2023-02-03T04:30:26;13.89;61.42
73780;SHT30;62093;37.614;15.072;2023-02-03T04:32:52;13.89;61.39
73780;SHT30;62093;37.614;15.072;2023-02-03T04:35:18;13.93;61.45
73780;SHT30;62093;37.614;15.072;2023-02-03T04:37:45;13.91;61.55
73780;SHT30;62093;37.614;15.072;2023-02-03T04:40:11;13.93;61.51
73780;SHT30;62093;37.614;15.072;2023-02-03T04:42:37;13.93;61.36
73780;SHT30;62093;37.614;15.072;2023-02-03T04:45:04;13.89;61.78
73780;SHT30;62093;37.614;15.072;2023-02-03T04:47:30;13.90;61.53
73780;SHT30;62093;37.614;15.072;2023-02-03T04:49:56;13.84;61.48
73780;SHT30;62093;37.614;15.072;2023-02-03T04:52:22;13.86;61.59
73780;SHT30;62093;37.614;15.072;2023-02-03T04:54:48;13.86;61.61
73780;SHT30;62093;37.614;15.072;2023-02-03T04:57:14;13.87;61.47
73780;SHT30;62093;37.614;15.072;2023-02-03T04:59:39;13.84;61.57
73780;SHT30;62093;37.614;15.072;2023-02-03T05:02:05;13.86;61.39
73780;SHT30;62093;37.614;15.072;2023-02-03T05:04:32;13.86;61.25
73780;SHT30;62093;37.614;15.072;2023-02-03T05:06:58;13.86;61.55
73780;SHT30;62093;37.614;15.072;2023-02-03T05:09:25;13.83;61.54
73780;SHT30;62093;37.614;15.072;2023-02-03T05:11:51;13.89;61.64
73780;SHT30;62093;37.614;15.072;2023-02-03T05:14:17;13.87;61.56
73780;SHT30;62093;37.614;15.072;2023-02-03T05:16:43;13.86;61.74
73780;SHT30;62093;37.614;15.072;2023-02-03T05:19:09;13.89;61.50
73780;SHT30;62093;37.614;15.072;2023-02-03T05:21:35;13.89;61.70
73780;SHT30;62093;37.614;15.072;2023-02-03T05:24:00;13.90;61.62
73780;SHT30;62093;37.614;15.072;2023-02-03T05:26:28;13.86;61.63
73780;SHT30;62093;37.614;15.072;2023-02-03T05:28:54;13.86;61.59
73780;SHT30;62093;37.614;15.072;2023-02-03T05:31:19;13.89;61.51
73780;SHT30;62093;37.614;15.072;2023-02-03T05:33:45;13.86;61.56
73780;SHT30;62093;37.614;15.072;2023-02-03T05:36:11;13.84;61.50
73780;SHT30;62093;37.614;15.072;2023-02-03T05:38:37;13.86;61.42
73780;SHT30;62093;37.614;15.072;2023-02-03T05:41:03;13.84;61.53
73780;SHT30;62093;37.614;15.072;2023-02-03T05:43:47;13.84;61.56
73780;SHT30;62093;37.614;15.072;2023-02-03T05:46:13;13.86;61.50
73780;SHT30;62093;37.614;15.072;2023-02-03T05:48:39;13.87;61.59
73780;SHT30;62093;37.614;15.072;2023-02-03T05:51:05;13.83;61.60
73780;SHT30;62093;37.614;15.072;2023-02-03T05:53:30;13.84;61.49
73780;SHT30;62093;37.614;15.072;2023-02-03T05:55:56;13.87;61.52
73780;SHT30;62093;37.614;15.072;2023-02-03T05:58:22;13.84;61.36
73780;SHT30;62093;37.614;15.072;2023-02-03T06:00:48;13.81;61.40
73780;SHT30;62093;37.614;15.072;2023-02-03T06:03:13;13.83;61.63
73780;SHT30;62093;37.614;15.072;2023-02-03T06:05:40;13.81;61.59
73780;SHT30;62093;37.614;15.072;2023-02-03T06:08:06;13.83;61.43
73780;SHT30;62093;37.614;15.072;2023-02-03T06:10:33;13.86;61.65
73780;SHT30;62093;37.614;15.072;2023-02-03T06:12:59;13.91;61.49
73780;SHT30;62093;37.614;15.072;2023-02-03T06:15:24;13.84;61.51
73780;SHT30;62093;37.614;15.072;2023-02-03T06:17:50;13.87;61.36
73780;SHT30;62093;37.614;15.072;2023-02-03T06:20:18;13.86;61.32
73780;SHT30;62093;37.614;15.072;2023-02-03T06:22:45;13.84;61.27
73780;SHT30;62093;37.614;15.072;2023-02-03T06:25:10;13.81;61.26
73780;SHT30;62093;37.614;15.072;2023-02-03T06:27:38;13.87;61.29
73780;SHT30;62093;37.614;15.072;2023-02-03T06:30:05;13.81;61.37
73780;SHT30;62093;37.614;15.072;2023-02-03T06:32:30;13.87;61.37
73780;SHT30;62093;37.614;15.072;2023-02-03T06:34:56;13.84;61.63
73780;SHT30;62093;37.614;15.072;2023-02-03T06:37:23;13.83;61.47
73780;SHT30;62093;37.614;15.072;2023-02-03T06:39:50;13.84;61.76
73780;SHT30;62093;37.614;15.072;2023-02-03T06:42:16;13.83;61.62
73780;SHT30;62093;37.614;15.072;2023-02-03T06:44:44;13.86;61.81
73780;SHT30;62093;37.614;15.072;2023-02-03T06:47:09;13.83;61.52
73780;SHT30;62093;37.614;15.072;2023-02-03T06:49:35;13.84;61.82
73780;SHT30;62093;37.614;15.072;2023-02-03T06:52:01;13.86;61.69
73780;SHT30;62093;37.614;15.072;2023-02-03T06:54:28;13.84;61.65
73780;SHT30;62093;37.614;15.072;2023-02-03T06:56:54;13.84;61.60
73780;SHT30;62093;37.614;15.072;2023-02-03T06:59:19;13.86;61.62
73780;SHT30;62093;37.614;15.072;2023-02-03T07:01:45;13.90;61.64
73780;SHT30;62093;37.614;15.072;2023-02-03T07:04:11;13.87;61.73
73780;SHT30;62093;37.614;15.072;2023-02-03T07:06:37;13.87;61.58
73780;SHT30;62093;37.614;15.072;2023-02-03T07:09:04;13.87;61.59
73780;SHT30;62093;37.614;15.072;2023-02-03T07:11:31;13.90;61.21
73780;SHT30;62093;37.614;15.072;2023-02-03T07:13:57;13.91;61.51
73780;SHT30;62093;37.614;15.072;2023-02-03T07:16:23;13.91;61.53
73780;SHT30;62093;37.614;15.072;2023-02-03T07:18:49;13.90;61.47
73780;SHT30;62093;37.614;15.072;2023-02-03T07:21:15;13.93;61.43
73780;SHT30;62093;37.614;15.072;2023-02-03T07:23:42;13.96;61.38
73780;SHT30;62093;37.614;15.072;2023-02-03T07:26:09;13.93;61.42
73780;SHT30;62093;37.614;15.072;2023-02-03T07:28:35;13.99;61.46
73780;SHT30;62093;37.614;15.072;2023-02-03T07:31:02;13.99;61.44
73780;SHT30;62093;37.614;15.072;2023-02-03T07:33:29;14.01;61.41
73780;SHT30;62093;37.614;15.072;2023-02-03T07:35:57;14.00;61.41
73780;SHT30;62093;37.614;15.072;2023-02-03T07:38:24;14.06;61.33
73780;SHT30;62093;37.614;15.072;2023-02-03T07:40:51;14.04;61.34
73780;SHT30;62093;37.614;15.072;2023-02-03T07:43:17;14.04;61.43
73780;SHT30;62093;37.614;15.072;2023-02-03T07:45:44;14.04;61.29
73780;SHT30;62093;37.614;15.072;2023-02-03T07:48:11;14.07;61.32
73780;SHT30;62093;37.614;15.072;2023-02-03T07:50:38;14.11;61.31
73780;SHT30;62093;37.614;15.072;2023-02-03T07:53:05;14.11;61.42
73780;SHT30;62093;37.614;15.072;2023-02-03T07:55:32;14.14;61.36
73780;SHT30;62093;37.614;15.072;2023-02-03T07:57:58;14.11;61.39
73780;SHT30;62093;37.614;15.072;2023-02-03T08:00:24;14.17;61.20
73780;SHT30;62093;37.614;15.072;2023-02-03T08:02:51;14.17;61.23
73780;SHT30;62093;37.614;15.072;2023-02-03T08:05:17;14.16;61.12
73780;SHT30;62093;37.614;15.072;2023-02-03T08:07:44;14.13;61.34
73780;SHT30;62093;37.614;15.072;2023-02-03T08:10:12;14.17;61.37
73780;SHT30;62093;37.614;15.072;2023-02-03T08:12:38;14.17;61.22
73780;SHT30;62093;37.614;15.072;2023-02-03T08:15:05;14.20;61.21
73780;SHT30;62093;37.614;15.072;2023-02-03T08:17:31;14.21;61.16
73780;SHT30;62093;37.614;15.072;2023-02-03T08:19:58;14.24;61.24
73780;SHT30;62093;37.614;15.072;2023-02-03T08:22:24;14.25;61.14
73780;SHT30;62093;37.614;15.072;2023-02-03T08:24:50;14.27;61.19
73780;SHT30;62093;37.614;15.072;2023-02-03T08:27:19;14.27;61.14
73780;SHT30;62093;37.614;15.072;2023-02-03T08:29:47;14.27;61.05
73780;SHT30;62093;37.614;15.072;2023-02-03T08:32:15;14.28;60.95
73780;SHT30;62093;37.614;15.072;2023-02-03T08:34:42;14.31;61.00
73780;SHT30;62093;37.614;15.072;2023-02-03T08:37:09;14.30;61.01
73780;SHT30;62093;37.614;15.072;2023-02-03T08:39:36;14.32;60.98
73780;SHT30;62093;37.614;15.072;2023-02-03T08:42:03;14.32;60.91
73780;SHT30;62093;37.614;15.072;2023-02-03T08:44:33;14.38;60.81
73780;SHT30;62093;37.614;15.072;2023-02-03T08:46:59;14.37;60.86
73780;SHT30;62093;37.614;15.072;2023-02-03T08:49:27;14.34;60.70
73780;SHT30;62093;37.614;15.072;2023-02-03T08:51:54;14.40;60.80
73780;SHT30;62093;37.614;15.072;2023-02-03T08:54:20;14.38;60.61
73780;SHT30;62093;37.614;15.072;2023-02-03T08:56:46;14.38;60.59
73780;SHT30;62093;37.614;15.072;2023-02-03T08:59:13;14.41;60.67
73780;SHT30;62093;37.614;15.072;2023-02-03T09:01:40;14.45;60.69
73780;SHT30;62093;37.614;15.072;2023-02-03T09:04:09;14.46;60.65
73780;SHT30;62093;37.614;15.072;2023-02-03T09:06:35;14.46;60.59
73780;SHT30;62093;37.614;15.072;2023-02-03T09:09:01;14.44;60.49
73780;SHT30;62093;37.614;15.072;2023-02-03T09:11:28;14.46;60.54
73780;SHT30;62093;37.614;15.072;2023-02-03T09:13:54;14.46;60.51
73780;SHT30;62093;37.614;15.072;2023-02-03T09:16:23;14.48;60.52
73780;SHT30;62093;37.614;15.072;2023-02-03T09:18:50;14.51;60.40
73780;SHT30;62093;37.614;15.072;2023-02-03T09:21:16;14.48;60.41
73780;SHT30;62093;37.614;15.072;2023-02-03T09:23:43;14.48;60.36
73780;SHT30;62093;37.614;15.072;2023-02-03T09:26:11;14.51;60.16
73780;SHT30;62093;37.614;15.072;2023-02-03T09:28:39;14.52;60.15
73780;SHT30;62093;37.614;15.072;2023-02-03T09:31:13;14.49;60.19
73780;SHT30;62093;37.614;15.072;2023-02-03T09:33:39;14.52;60.23
73780;SHT30;62093;37.614;15.072;2023-02-03T09:36:06;14.55;60.24
73780;SHT30;62093;37.614;15.072;2023-02-03T09:38:33;14.54;60.23
73780;SHT30;62093;37.614;15.072;2023-02-03T09:41:03;14.52;60.25
73780;SHT30;62093;37.614;15.072;2023-02-03T09:43:55;14.57;60.24
73780;SHT30;62093;37.614;15.072;2023-02-03T09:46:31;14.61;60.20
73780;SHT30;62093;37.614;15.072;2023-02-03T09:49:07;14.59;60.17
73780;SHT30;62093;37.614;15.072;2023-02-03T09:51:41;14.59;60.10
73780;SHT30;62093;37.614;15.072;2023-02-03T09:56:52;14.61;60.16
73780;SHT30;62093;37.614;15.072;2023-02-03T09:59:21;14.62;60.01
73780;SHT30;62093;37.614;15.072;2023-02-03T10:10:05;14.67;59.87
73780;SHT30;62093;37.614;15.072;2023-02-03T10:18:16;14.71;59.89
73780;SHT30;62093;37.614;15.072;2023-02-03T10:20:50;14.71;59.85
73780;SHT30;62093;37.614;15.072;2023-02-03T10:23:26;14.69;59.79
73780;SHT30;62093;37.614;15.072;2023-02-03T10:25:54;14.69;59.90
73780;SHT30;62093;37.614;15.072;2023-02-03T10:28:28;14.71;59.90
73780;SHT30;62093;37.614;15.072;2023-02-03T10:30:56;14.73;59.84
73780;SHT30;62093;37.614;15.072;2023-02-03T10:33:27;14.73;59.84
73780;SHT30;62093;37.614;15.072;2023-02-03T10:36:14;14.76;59.79
73780;SHT30;62093;37.614;15.072;2023-02-03T10:39:03;14.78;59.72
73780;SHT30;62093;37.614;15.072;2023-02-03T10:41:32;14.76;59.64
73780;SHT30;62093;37.614;15.072;2023-02-03T10:44:01;14.78;59.74
73780;SHT30;62093;37.614;15.072;2023-02-03T10:46:30;14.81;59.64
73780;SHT30;62093;37.614;15.072;2023-02-03T10:48:56;14.79;59.76
73780;SHT30;62093;37.614;15.072;2023-02-03T10:51:28;14.78;59.70
73780;SHT30;62093;37.614;15.072;2023-02-03T10:53:57;14.78;59.75
73780;SHT30;62093;37.614;15.072;2023-02-03T10:56:28;14.82;59.57
73780;SHT30;62093;37.614;15.072;2023-02-03T10:58:58;14.82;59.59
73780;SHT30;62093;37.614;15.072;2023-02-03T11:04:00;14.86;59.48
73780;SHT30;62093;37.614;15.072;2023-02-03T11:06:28;14.86;59.52
73780;SHT30;62093;37.614;15.072;2023-02-03T11:08:54;14.86;59.50
73780;SHT30;62093;37.614;15.072;2023-02-03T11:14:15;14.88;59.51
73780;SHT30;62093;37.614;15.072;2023-02-03T11:16:42;14.91;59.50
73780;SHT30;62093;37.614;15.072;2023-02-03T11:19:18;14.88;59.48
73780;SHT30;62093;37.614;15.072;2023-02-03T11:21:46;14.88;59.48
73780;SHT30;62093;37.614;15.072;2023-02-03T11:24:25;14.91;59.42
73780;SHT30;62093;37.614;15.072;2023-02-03T11:29:33;14.92;59.41
73780;SHT30;62093;37.614;15.072;2023-02-03T11:32:12;14.93;59.44
73780;SHT30;62093;37.614;15.072;2023-02-03T11:34:46;14.98;59.37
73780;SHT30;62093;37.614;15.072;2023-02-03T11:37:26;14.95;59.38
73780;SHT30;62093;37.614;15.072;2023-02-03T11:42:35;14.98;59.30
73780;SHT30;62093;37.614;15.072;2023-02-03T11:59:21;15.00;59.22
73780;SHT30;62093;37.614;15.072;2023-02-03T12:01:22;15.00;59.24
73780;SHT30;62093;37.614;15.072;2023-02-03T12:20:38;15.04;59.10
73780;SHT30;62093;37.614;15.072;2023-02-03T12:23:29;15.07;59.01
73780;SHT30;62093;37.614;15.072;2023-02-03T12:26:04;15.07;58.96
73780;SHT30;62093;37.614;15.072;2023-02-03T12:34:14;15.10;58.93
73780;SHT30;62093;37.614;15.072;2023-02-03T12:36:58;15.10;58.99
73780;SHT30;62093;37.614;15.072;2023-02-03T12:42:22;15.13;58.84
73780;SHT30;62093;37.614;15.072;2023-02-03T12:47:46;15.14;58.83
73780;SHT30;62093;37.614;15.072;2023-02-03T12:55:57;15.16;58.72
73780;SHT30;62093;37.614;15.072;2023-02-03T12:58:30;15.16;58.76
73780;SHT30;62093;37.614;15.072;2023-02-03T13:01:21;15.18;58.81
73780;SHT30;62093;37.614;15.072;2023-02-03T13:03:54;15.18;58.81
73780;SHT30;62093;37.614;15.072;2023-02-03T13:06:40;15.18;58.83
73780;SHT30;62093;37.614;15.072;2023-02-03T13:09:40;15.19;58.76
73780;SHT30;62093;37.614;15.072;2023-02-03T13:15:05;15.20;58.74
73780;SHT30;62093;37.614;15.072;2023-02-03T13:20:34;15.23;58.75
73780;SHT30;62093;37.614;15.072;2023-02-03T13:23:06;15.23;58.79
73780;SHT30;62093;37.614;15.072;2023-02-03T13:34:08;15.26;58.74
73780;SHT30;62093;37.614;15.072;2023-02-03T13:42:17;15.26;58.72
73780;SHT30;62093;37.614;15.072;2023-02-03T13:44:45;15.24;58.71
73780;SHT30;62093;37.614;15.072;2023-02-03T13:47:26;15.26;58.75
73780;SHT30;62093;37.614;15.072;2023-02-03T13:49:58;15.27;58.77
73780;SHT30;62093;37.614;15.072;2023-02-03T13:52:37;15.27;58.79
73780;SHT30;62093;37.614;15.072;2023-02-03T13:55:04;15.23;58.78
73780;SHT30;62093;37.614;15.072;2023-02-03T13:57:33;15.27;58.75
73780;SHT30;62093;37.614;15.072;2023-02-03T14:00:02;15.24;58.76
73780;SHT30;62093;37.614;15.072;2023-02-03T14:02:44;15.27;58.77
73780;SHT30;62093;37.614;15.072;2023-02-03T14:05:45;15.27;58.76
73780;SHT30;62093;37.614;15.072;2023-02-03T14:16:46;15.27;58.80
73780;SHT30;62093;37.614;15.072;2023-02-03T14:22:07;15.30;58.73
73780;SHT30;62093;37.614;15.072;2023-02-03T14:24:36;15.27;58.81
73780;SHT30;62093;37.614;15.072;2023-02-03T14:27:05;15.29;58.77
73780;SHT30;62093;37.614;15.072;2023-02-03T14:29:39;15.29;58.76
73780;SHT30;62093;37.614;15.072;2023-02-03T14:32:06;15.30;58.79
73780;SHT30;62093;37.614;15.072;2023-02-03T14:34:36;15.29;58.74
73780;SHT30;62093;37.614;15.072;2023-02-03T14:37:22;15.31;58.80
73780;SHT30;62093;37.614;15.072;2023-02-03T14:43:00;15.27;58.86
73780;SHT30;62093;37.614;15.072;2023-02-03T15:00:01;15.30;58.86
73780;SHT30;62093;37.614;15.072;2023-02-03T15:02:29;15.33;58.83
73780;SHT30;62093;37.614;15.072;2023-02-03T15:07:39;15.33;59.09
73780;SHT30;62093;37.614;15.072;2023-02-03T15:10:15;15.33;58.96
73780;SHT30;62093;37.614;15.072;2023-02-03T15:12:49;15.34;59.01
73780;SHT30;62093;37.614;15.072;2023-02-03T15:15:26;15.31;59.02
73780;SHT30;62093;37.614;15.072;2023-02-03T15:17:58;15.31;59.05
73780;SHT30;62093;37.614;15.072;2023-02-03T15:20:35;15.30;59.03
73780;SHT30;62093;37.614;15.072;2023-02-03T15:23:20;15.31;59.01
73780;SHT30;62093;37.614;15.072;2023-02-03T15:26:01;15.34;59.01
73780;SHT30;62093;37.614;15.072;2023-02-03T15:28:29;15.31;59.04
73780;SHT30;62093;37.614;15.072;2023-02-03T15:33:29;15.31;59.26
73780;SHT30;62093;37.614;15.072;2023-02-03T15:36:05;15.30;59.46
73780;SHT30;62093;37.614;15.072;2023-02-03T15:38:38;15.30;59.47
73780;SHT30;62093;37.614;15.072;2023-02-03T15:41:12;15.30;59.45
73780;SHT30;62093;37.614;15.072;2023-02-03T15:43:43;15.31;59.47
73780;SHT30;62093;37.614;15.072;2023-02-03T15:46:15;15.30;59.53
73780;SHT30;62093;37.614;15.072;2023-02-03T15:49:24;15.31;59.64
73780;SHT30;62093;37.614;15.072;2023-02-03T15:51:57;15.29;59.61
73780;SHT30;62093;37.614;15.072;2023-02-03T15:54:31;15.31;59.69
73780;SHT30;62093;37.614;15.072;2023-02-03T15:57:15;15.29;59.65
73780;SHT30;62093;37.614;15.072;2023-02-03T15:59:44;15.31;59.64
73780;SHT30;62093;37.614;15.072;2023-02-03T16:02:15;15.33;59.51
73780;SHT30;62093;37.614;15.072;2023-02-03T16:04:42;15.33;59.55
73780;SHT30;62093;37.614;15.072;2023-02-03T16:07:20;15.31;59.57
73780;SHT30;62093;37.614;15.072;2023-02-03T16:09:51;15.31;59.64
73780;SHT30;62093;37.614;15.072;2023-02-03T16:12:31;15.31;59.58
73780;SHT30;62093;37.614;15.072;2023-02-03T16:14:59;15.33;59.64
73780;SHT30;62093;37.614;15.072;2023-02-03T16:17:36;15.34;59.79
73780;SHT30;62093;37.614;15.072;2023-02-03T16:20:24;15.33;59.67
73780;SHT30;62093;37.614;15.072;2023-02-03T16:25:28;15.33;59.70
73780;SHT30;62093;37.614;15.072;2023-02-03T16:27:58;15.30;59.73
73780;SHT30;62093;37.614;15.072;2023-02-03T16:30:58;15.33;59.72
73780;SHT30;62093;37.614;15.072;2023-02-03T16:33:48;15.34;59.62
73780;SHT30;62093;37.614;15.072;2023-02-03T16:36:33;15.30;59.66
73780;SHT30;62093;37.614;15.072;2023-02-03T16:39:22;15.33;59.75
73780;SHT30;62093;37.614;15.072;2023-02-03T16:42:13;15.30;59.70
73780;SHT30;62093;37.614;15.072;2023-02-03T16:44:58;15.29;59.82
73780;SHT30;62093;37.614;15.072;2023-02-03T16:47:43;15.31;59.71
73780;SHT30;62093;37.614;15.072;2023-02-03T16:50:29;15.31;60.01
73780;SHT30;62093;37.614;15.072;2023-02-03T16:53:19;15.31;59.78
73780;SHT30;62093;37.614;15.072;2023-02-03T16:55:46;15.30;59.89
73780;SHT30;62093;37.614;15.072;2023-02-03T16:58:11;15.30;59.99
73780;SHT30;62093;37.614;15.072;2023-02-03T17:00:42;15.29;60.03
73780;SHT30;62093;37.614;15.072;2023-02-03T17:03:13;15.27;60.07
73780;SHT30;62093;37.614;15.072;2023-02-03T17:05:41;15.29;60.03
73780;SHT30;62093;37.614;15.072;2023-02-03T17:08:07;15.26;60.06
73780;SHT30;62093;37.614;15.072;2023-02-03T17:10:34;15.24;60.13
73780;SHT30;62093;37.614;15.072;2023-02-03T17:13:00;15.26;60.12
73780;SHT30;62093;37.614;15.072;2023-02-03T17:15:26;15.27;60.15
73780;SHT30;62093;37.614;15.072;2023-02-03T17:17:52;15.26;60.11
73780;SHT30;62093;37.614;15.072;2023-02-03T17:20:18;15.26;60.13
73780;SHT30;62093;37.614;15.072;2023-02-03T17:22:44;15.23;60.14
73780;SHT30;62093;37.614;15.072;2023-02-03T17:25:09;15.24;60.14
73780;SHT30;62093;37.614;15.072;2023-02-03T17:27:35;15.24;60.12
73780;SHT30;62093;37.614;15.072;2023-02-03T17:30:01;15.22;60.07
73780;SHT30;62093;37.614;15.072;2023-02-03T17:32:27;15.22;60.17
73780;SHT30;62093;37.614;15.072;2023-02-03T17:34:52;15.22;60.12
73780;SHT30;62093;37.614;15.072;2023-02-03T17:37:18;15.23;60.28
73780;SHT30;62093;37.614;15.072;2023-02-03T17:39:44;15.23;60.24
73780;SHT30;62093;37.614;15.072;2023-02-03T17:42:10;15.23;60.18
73780;SHT30;62093;37.614;15.072;2023-02-03T17:44:36;15.20;60.14
73780;SHT30;62093;37.614;15.072;2023-02-03T17:47:02;15.19;60.19
73780;SHT30;62093;37.614;15.072;2023-02-03T17:49:28;15.18;60.23
73780;SHT30;62093;37.614;15.072;2023-02-03T17:51:54;15.19;60.26
73780;SHT30;62093;37.614;15.072;2023-02-03T17:54:20;15.19;60.17
73780;SHT30;62093;37.614;15.072;2023-02-03T17:56:46;15.20;60.24
73780;SHT30;62093;37.614;15.072;2023-02-03T17:59:14;15.19;60.35
73780;SHT30;62093;37.614;15.072;2023-02-03T18:01:40;15.22;60.30
73780;SHT30;62093;37.614;15.072;2023-02-03T18:04:07;15.23;60.17
73780;SHT30;62093;37.614;15.072;2023-02-03T18:06:35;15.19;60.20